メインページ
METAR-TAF:

METAR-TAF

空港 :

ピッツバーグ, ペンシルバニア州, アメリカ合衆国

ピッツバーグ国際空港

緯度: 40-30-14N, 経度: 080-15-59W, 海抜: 366m

現時点の気象観測

当レポートは41分前の21:51(UTC)に作成
西の風 4kt
気温 26°C
湿度 58%
気圧 1019 hPa
視程: 16.1km
高度22000ftの曇り

METAR: KPIT 262151Z 26004KT 10SM OVC220 26/17 A3009 RMK AO2 SLP188 T02610172

時間: 18:32 (22:32 UTC)

予報

当レポートは1時間24分前の21:08(UTC)に作成
予報は26日の 21時(UTC)から 27日の 24時(UTC)まで有効
南/南西の風 5kt
視程: 10km
高度25000ftの千切れ雲あり
27日の 1000時(UTC)から
の風 kt
視程: 6.4km
高度25000ftの雲は散在している
27日の 1400時(UTC)から
変向風 4kt
視程: 10km
高度25000ftの千切れ雲あり
27日の 2100時(UTC)から
西の風 5kt
視程: 10km
高度25000ftの千切れ雲あり
確率 30%
27日の 21時(UTC)から 27日の 24時(UTC)まで
視程: 10km
高度5000ftの千切れ雲あり
弱いにわか雨

TAF: KPIT 262108Z 2621/2724 20005KT P6SM BKN250 FM271000 00000KT 4SM BR SCT250 FM271400 VRB04KT P6SM BKN250 FM272100 26005KT P6SM BKN250 PROB30 2721/2724 P6SM -SHRA BKN050

4,000以上の空港の気象観測と天気予報(METAR報とTAF報)

利用可能な観測所は地図上に黄色い丸と赤い丸で示す。

丸の上にカーソルを重ねると観測所名を参照できる。

次にクリックすると気象観測と天気予報を参照できる。

マップの切り替え:黒色「×」印の緑ボタンをクリックして拡大、「-」印の緑ボタンをクリックして縮小、緑色の三角印をクリックして隣りの地図に切り替え


METAR-TAF: